sensor_id;sensor_type;location;lat;lon;timestamp;P1;durP1;ratioP1;P2;durP2;ratioP2
24961;SDS011;12992;50.884;13.668;2023-05-28T00:00:11;6.93;;;3.70;;
24961;SDS011;12992;50.884;13.668;2023-05-28T00:02:44;7.45;;;3.53;;
24961;SDS011;12992;50.884;13.668;2023-05-28T00:05:09;9.88;;;3.80;;
24961;SDS011;12992;50.884;13.668;2023-05-28T00:07:34;6.68;;;3.30;;
24961;SDS011;12992;50.884;13.668;2023-05-28T00:10:00;7.95;;;3.45;;
24961;SDS011;12992;50.884;13.668;2023-05-28T00:12:25;7.18;;;3.38;;
24961;SDS011;12992;50.884;13.668;2023-05-28T00:14:51;6.20;;;3.17;;
24961;SDS011;12992;50.884;13.668;2023-05-28T00:17:17;8.82;;;3.80;;
24961;SDS011;12992;50.884;13.668;2023-05-28T00:19:42;9.68;;;3.50;;
24961;SDS011;12992;50.884;13.668;2023-05-28T00:22:08;7.78;;;3.97;;
24961;SDS011;12992;50.884;13.668;2023-05-28T00:24:34;8.07;;;3.35;;
24961;SDS011;12992;50.884;13.668;2023-05-28T00:26:59;6.35;;;3.20;;
24961;SDS011;12992;50.884;13.668;2023-05-28T00:29:25;4.45;;;3.00;;
24961;SDS011;12992;50.884;13.668;2023-05-28T00:31:52;6.10;;;3.47;;
24961;SDS011;12992;50.884;13.668;2023-05-28T00:34:20;8.35;;;3.05;;
24961;SDS011;12992;50.884;13.668;2023-05-28T00:36:46;7.22;;;3.20;;
24961;SDS011;12992;50.884;13.668;2023-05-28T00:39:12;6.88;;;3.08;;
24961;SDS011;12992;50.884;13.668;2023-05-28T00:41:39;6.30;;;3.40;;
24961;SDS011;12992;50.884;13.668;2023-05-28T00:44:05;5.88;;;3.10;;
24961;SDS011;12992;50.884;13.668;2023-05-28T00:46:31;7.38;;;2.95;;
24961;SDS011;12992;50.884;13.668;2023-05-28T00:48:57;7.38;;;3.67;;
24961;SDS011;12992;50.884;13.668;2023-05-28T00:51:22;8.15;;;3.05;;
24961;SDS011;12992;50.884;13.668;2023-05-28T00:53:47;9.35;;;3.65;;
24961;SDS011;12992;50.884;13.668;2023-05-28T00:56:13;9.00;;;3.60;;
24961;SDS011;12992;50.884;13.668;2023-05-28T00:58:42;12.63;;;4.10;;
24961;SDS011;12992;50.884;13.668;2023-05-28T01:01:08;7.13;;;3.50;;
24961;SDS011;12992;50.884;13.668;2023-05-28T01:03:37;8.80;;;3.58;;
24961;SDS011;12992;50.884;13.668;2023-05-28T01:06:04;8.30;;;3.97;;
24961;SDS011;12992;50.884;13.668;2023-05-28T01:08:34;7.60;;;3.92;;
24961;SDS011;12992;50.884;13.668;2023-05-28T01:11:02;7.57;;;3.20;;
24961;SDS011;12992;50.884;13.668;2023-05-28T01:13:27;4.88;;;2.80;;
24961;SDS011;12992;50.884;13.668;2023-05-28T01:15:53;4.25;;;3.20;;
24961;SDS011;12992;50.884;13.668;2023-05-28T01:18:18;6.25;;;3.08;;
24961;SDS011;12992;50.884;13.668;2023-05-28T01:20:44;7.18;;;3.22;;
24961;SDS011;12992;50.884;13.668;2023-05-28T01:23:11;8.32;;;2.97;;
24961;SDS011;12992;50.884;13.668;2023-05-28T01:25:41;5.28;;;3.25;;
24961;SDS011;12992;50.884;13.668;2023-05-28T01:28:10;6.57;;;3.28;;
24961;SDS011;12992;50.884;13.668;2023-05-28T01:30:37;6.32;;;3.75;;
24961;SDS011;12992;50.884;13.668;2023-05-28T01:33:02;6.38;;;2.88;;
24961;SDS011;12992;50.884;13.668;2023-05-28T01:35:28;8.45;;;3.55;;
24961;SDS011;12992;50.884;13.668;2023-05-28T01:37:54;6.68;;;3.00;;
24961;SDS011;12992;50.884;13.668;2023-05-28T01:40:24;6.88;;;3.00;;
24961;SDS011;12992;50.884;13.668;2023-05-28T01:42:51;4.68;;;2.72;;
24961;SDS011;12992;50.884;13.668;2023-05-28T01:45:20;8.65;;;3.20;;
24961;SDS011;12992;50.884;13.668;2023-05-28T01:47:46;6.05;;;3.20;;
24961;SDS011;12992;50.884;13.668;2023-05-28T01:50:12;5.78;;;2.78;;
24961;SDS011;12992;50.884;13.668;2023-05-28T01:52:38;4.88;;;2.70;;
24961;SDS011;12992;50.884;13.668;2023-05-28T01:55:04;6.18;;;2.85;;
24961;SDS011;12992;50.884;13.668;2023-05-28T01:57:30;4.88;;;2.88;;
24961;SDS011;12992;50.884;13.668;2023-05-28T01:59:55;6.38;;;3.08;;
24961;SDS011;12992;50.884;13.668;2023-05-28T02:02:21;6.35;;;3.05;;
24961;SDS011;12992;50.884;13.668;2023-05-28T02:04:51;6.93;;;3.63;;
24961;SDS011;12992;50.884;13.668;2023-05-28T02:07:16;5.38;;;3.10;;
24961;SDS011;12992;50.884;13.668;2023-05-28T02:09:41;6.97;;;3.25;;
24961;SDS011;12992;50.884;13.668;2023-05-28T02:12:08;5.68;;;3.20;;
24961;SDS011;12992;50.884;13.668;2023-05-28T02:14:33;6.97;;;3.35;;
24961;SDS011;12992;50.884;13.668;2023-05-28T02:17:00;8.35;;;3.40;;
24961;SDS011;12992;50.884;13.668;2023-05-28T02:19:25;5.75;;;3.28;;
24961;SDS011;12992;50.884;13.668;2023-05-28T02:21:51;5.97;;;2.95;;
24961;SDS011;12992;50.884;13.668;2023-05-28T02:24:17;5.63;;;3.05;;
24961;SDS011;12992;50.884;13.668;2023-05-28T02:26:42;9.75;;;3.15;;
24961;SDS011;12992;50.884;13.668;2023-05-28T02:29:08;6.32;;;2.85;;
24961;SDS011;12992;50.884;13.668;2023-05-28T02:31:34;8.75;;;3.35;;
24961;SDS011;12992;50.884;13.668;2023-05-28T02:34:00;8.10;;;3.05;;
24961;SDS011;12992;50.884;13.668;2023-05-28T02:36:25;6.93;;;3.50;;
24961;SDS011;12992;50.884;13.668;2023-05-28T02:38:51;8.02;;;2.78;;
24961;SDS011;12992;50.884;13.668;2023-05-28T02:41:16;5.63;;;3.03;;
24961;SDS011;12992;50.884;13.668;2023-05-28T02:43:46;6.05;;;3.10;;
24961;SDS011;12992;50.884;13.668;2023-05-28T02:46:11;5.95;;;2.92;;
24961;SDS011;12992;50.884;13.668;2023-05-28T02:48:37;7.28;;;3.10;;
24961;SDS011;12992;50.884;13.668;2023-05-28T02:51:04;4.80;;;2.63;;
24961;SDS011;12992;50.884;13.668;2023-05-28T02:53:49;7.72;;;3.33;;
24961;SDS011;12992;50.884;13.668;2023-05-28T02:56:14;5.38;;;3.00;;
24961;SDS011;12992;50.884;13.668;2023-05-28T02:58:43;5.65;;;3.08;;
24961;SDS011;12992;50.884;13.668;2023-05-28T03:01:08;6.28;;;2.78;;
24961;SDS011;12992;50.884;13.668;2023-05-28T03:03:35;6.85;;;3.45;;
24961;SDS011;12992;50.884;13.668;2023-05-28T03:06:00;5.63;;;3.20;;
24961;SDS011;12992;50.884;13.668;2023-05-28T03:08:28;4.65;;;2.97;;
24961;SDS011;12992;50.884;13.668;2023-05-28T03:10:54;5.82;;;3.22;;
24961;SDS011;12992;50.884;13.668;2023-05-28T03:13:19;5.45;;;2.90;;
24961;SDS011;12992;50.884;13.668;2023-05-28T03:15:45;6.47;;;3.00;;
24961;SDS011;12992;50.884;13.668;2023-05-28T03:18:11;6.63;;;2.88;;
24961;SDS011;12992;50.884;13.668;2023-05-28T03:20:38;7.53;;;3.10;;
24961;SDS011;12992;50.884;13.668;2023-05-28T03:23:03;7.22;;;3.40;;
24961;SDS011;12992;50.884;13.668;2023-05-28T03:25:33;7.85;;;3.03;;
24961;SDS011;12992;50.884;13.668;2023-05-28T03:27:58;4.80;;;3.15;;
24961;SDS011;12992;50.884;13.668;2023-05-28T03:30:35;5.60;;;3.05;;
24961;SDS011;12992;50.884;13.668;2023-05-28T03:33:01;8.27;;;3.22;;
24961;SDS011;12992;50.884;13.668;2023-05-28T03:35:26;6.88;;;3.50;;
24961;SDS011;12992;50.884;13.668;2023-05-28T03:37:51;7.57;;;2.60;;
24961;SDS011;12992;50.884;13.668;2023-05-28T03:40:17;6.32;;;3.25;;
24961;SDS011;12992;50.884;13.668;2023-05-28T03:42:42;5.45;;;2.80;;
24961;SDS011;12992;50.884;13.668;2023-05-28T03:45:08;6.70;;;3.20;;
24961;SDS011;12992;50.884;13.668;2023-05-28T03:47:33;6.10;;;3.38;;
24961;SDS011;12992;50.884;13.668;2023-05-28T03:50:01;4.78;;;2.92;;
24961;SDS011;12992;50.884;13.668;2023-05-28T03:52:27;7.75;;;3.00;;
24961;SDS011;12992;50.884;13.668;2023-05-28T03:54:53;6.22;;;3.28;;
24961;SDS011;12992;50.884;13.668;2023-05-28T03:57:19;5.53;;;2.85;;
24961;SDS011;12992;50.884;13.668;2023-05-28T03:59:44;7.60;;;3.05;;
24961;SDS011;12992;50.884;13.668;2023-05-28T04:02:09;6.47;;;3.22;;
24961;SDS011;12992;50.884;13.668;2023-05-28T04:04:35;4.85;;;2.65;;
24961;SDS011;12992;50.884;13.668;2023-05-28T04:07:00;7.57;;;3.20;;
24961;SDS011;12992;50.884;13.668;2023-05-28T04:09:26;5.22;;;2.85;;
24961;SDS011;12992;50.884;13.668;2023-05-28T04:11:52;5.63;;;2.63;;
24961;SDS011;12992;50.884;13.668;2023-05-28T04:14:18;4.90;;;2.83;;
24961;SDS011;12992;50.884;13.668;2023-05-28T04:16:44;6.13;;;2.83;;
24961;SDS011;12992;50.884;13.668;2023-05-28T04:19:10;6.22;;;3.03;;
24961;SDS011;12992;50.884;13.668;2023-05-28T04:21:36;5.03;;;3.00;;
24961;SDS011;12992;50.884;13.668;2023-05-28T04:24:02;5.75;;;3.47;;
24961;SDS011;12992;50.884;13.668;2023-05-28T04:26:27;4.57;;;3.25;;
24961;SDS011;12992;50.884;13.668;2023-05-28T04:28:52;5.72;;;2.67;;
24961;SDS011;12992;50.884;13.668;2023-05-28T04:31:18;5.03;;;3.38;;
24961;SDS011;12992;50.884;13.668;2023-05-28T04:33:44;6.97;;;3.10;;
24961;SDS011;12992;50.884;13.668;2023-05-28T04:36:11;4.93;;;2.80;;
24961;SDS011;12992;50.884;13.668;2023-05-28T04:38:39;6.57;;;3.38;;
24961;SDS011;12992;50.884;13.668;2023-05-28T04:41:05;4.55;;;2.88;;
24961;SDS011;12992;50.884;13.668;2023-05-28T04:43:31;5.80;;;2.53;;
24961;SDS011;12992;50.884;13.668;2023-05-28T04:45:58;6.03;;;3.00;;
24961;SDS011;12992;50.884;13.668;2023-05-28T04:48:25;4.55;;;2.50;;
24961;SDS011;12992;50.884;13.668;2023-05-28T04:50:51;5.32;;;2.97;;
24961;SDS011;12992;50.884;13.668;2023-05-28T04:53:16;3.63;;;2.50;;
24961;SDS011;12992;50.884;13.668;2023-05-28T04:55:42;4.95;;;2.33;;
24961;SDS011;12992;50.884;13.668;2023-05-28T04:58:09;4.13;;;2.60;;
24961;SDS011;12992;50.884;13.668;2023-05-28T05:00:35;5.18;;;2.58;;
24961;SDS011;12992;50.884;13.668;2023-05-28T05:03:01;3.90;;;2.45;;
24961;SDS011;12992;50.884;13.668;2023-05-28T05:05:27;4.03;;;2.28;;
24961;SDS011;12992;50.884;13.668;2023-05-28T05:07:52;6.15;;;2.70;;
24961;SDS011;12992;50.884;13.668;2023-05-28T05:10:18;5.30;;;3.10;;
24961;SDS011;12992;50.884;13.668;2023-05-28T05:12:43;6.78;;;2.70;;
24961;SDS011;12992;50.884;13.668;2023-05-28T05:15:10;5.03;;;2.35;;
24961;SDS011;12992;50.884;13.668;2023-05-28T05:17:35;4.32;;;2.58;;
24961;SDS011;12992;50.884;13.668;2023-05-28T05:20:01;11.40;;;6.72;;
24961;SDS011;12992;50.884;13.668;2023-05-28T05:22:30;7.30;;;3.72;;
24961;SDS011;12992;50.884;13.668;2023-05-28T05:24:56;6.57;;;2.63;;
24961;SDS011;12992;50.884;13.668;2023-05-28T05:27:21;11.27;;;4.03;;
24961;SDS011;12992;50.884;13.668;2023-05-28T05:29:46;5.88;;;3.15;;
24961;SDS011;12992;50.884;13.668;2023-05-28T05:32:12;6.78;;;2.67;;
24961;SDS011;12992;50.884;13.668;2023-05-28T05:34:38;3.95;;;2.70;;
24961;SDS011;12992;50.884;13.668;2023-05-28T05:37:36;3.78;;;2.10;;
24961;SDS011;12992;50.884;13.668;2023-05-28T05:40:06;5.32;;;2.47;;
24961;SDS011;12992;50.884;13.668;2023-05-28T05:42:52;4.38;;;2.50;;
24961;SDS011;12992;50.884;13.668;2023-05-28T05:45:18;5.28;;;2.95;;
24961;SDS011;12992;50.884;13.668;2023-05-28T05:47:43;5.25;;;2.63;;
24961;SDS011;12992;50.884;13.668;2023-05-28T05:50:10;7.43;;;2.55;;
24961;SDS011;12992;50.884;13.668;2023-05-28T05:52:36;4.68;;;2.50;;
24961;SDS011;12992;50.884;13.668;2023-05-28T05:55:03;5.20;;;2.60;;
24961;SDS011;12992;50.884;13.668;2023-05-28T05:57:28;3.50;;;2.58;;
24961;SDS011;12992;50.884;13.668;2023-05-28T05:59:54;6.45;;;2.47;;
24961;SDS011;12992;50.884;13.668;2023-05-28T06:02:20;8.07;;;2.33;;
24961;SDS011;12992;50.884;13.668;2023-05-28T06:04:46;6.13;;;2.95;;
24961;SDS011;12992;50.884;13.668;2023-05-28T06:07:30;6.40;;;2.53;;
24961;SDS011;12992;50.884;13.668;2023-05-28T06:10:11;6.30;;;2.85;;
24961;SDS011;12992;50.884;13.668;2023-05-28T06:12:38;4.80;;;2.28;;
24961;SDS011;12992;50.884;13.668;2023-05-28T06:15:04;3.75;;;2.55;;
24961;SDS011;12992;50.884;13.668;2023-05-28T06:17:30;4.72;;;2.50;;
24961;SDS011;12992;50.884;13.668;2023-05-28T06:19:56;6.75;;;3.15;;
24961;SDS011;12992;50.884;13.668;2023-05-28T06:22:22;8.20;;;3.10;;
24961;SDS011;12992;50.884;13.668;2023-05-28T06:24:47;5.22;;;2.90;;
24961;SDS011;12992;50.884;13.668;2023-05-28T06:27:14;4.68;;;2.30;;
24961;SDS011;12992;50.884;13.668;2023-05-28T06:29:40;5.03;;;2.55;;
24961;SDS011;12992;50.884;13.668;2023-05-28T06:32:06;5.80;;;2.70;;
24961;SDS011;12992;50.884;13.668;2023-05-28T06:34:32;4.65;;;2.47;;
24961;SDS011;12992;50.884;13.668;2023-05-28T06:36:57;7.13;;;2.85;;
24961;SDS011;12992;50.884;13.668;2023-05-28T06:39:23;5.93;;;2.80;;
24961;SDS011;12992;50.884;13.668;2023-05-28T06:41:50;7.68;;;2.40;;
24961;SDS011;12992;50.884;13.668;2023-05-28T06:44:45;5.93;;;2.42;;
24961;SDS011;12992;50.884;13.668;2023-05-28T06:47:14;4.38;;;2.17;;
24961;SDS011;12992;50.884;13.668;2023-05-28T06:49:39;4.13;;;2.42;;
24961;SDS011;12992;50.884;13.668;2023-05-28T06:52:06;5.50;;;2.60;;
24961;SDS011;12992;50.884;13.668;2023-05-28T06:54:31;4.70;;;2.42;;
24961;SDS011;12992;50.884;13.668;2023-05-28T06:56:57;5.22;;;2.40;;
24961;SDS011;12992;50.884;13.668;2023-05-28T06:59:43;4.75;;;2.15;;
24961;SDS011;12992;50.884;13.668;2023-05-28T07:02:21;6.03;;;2.35;;
24961;SDS011;12992;50.884;13.668;2023-05-28T07:05:08;5.82;;;2.28;;
24961;SDS011;12992;50.884;13.668;2023-05-28T07:07:35;9.45;;;3.15;;
24961;SDS011;12992;50.884;13.668;2023-05-28T07:10:02;4.70;;;2.75;;
24961;SDS011;12992;50.884;13.668;2023-05-28T07:12:30;4.35;;;2.20;;
24961;SDS011;12992;50.884;13.668;2023-05-28T07:14:57;6.28;;;2.33;;
24961;SDS011;12992;50.884;13.668;2023-05-28T07:17:22;5.00;;;2.00;;
24961;SDS011;12992;50.884;13.668;2023-05-28T07:19:49;4.88;;;2.17;;
24961;SDS011;12992;50.884;13.668;2023-05-28T07:22:20;5.18;;;2.33;;
24961;SDS011;12992;50.884;13.668;2023-05-28T07:24:45;5.68;;;2.60;;
24961;SDS011;12992;50.884;13.668;2023-05-28T07:27:10;3.50;;;2.35;;
24961;SDS011;12992;50.884;13.668;2023-05-28T07:29:36;6.55;;;2.65;;
24961;SDS011;12992;50.884;13.668;2023-05-28T07:32:01;4.70;;;2.38;;
24961;SDS011;12992;50.884;13.668;2023-05-28T07:34:30;7.18;;;2.60;;
24961;SDS011;12992;50.884;13.668;2023-05-28T07:36:56;4.88;;;2.33;;
24961;SDS011;12992;50.884;13.668;2023-05-28T07:39:22;4.38;;;2.20;;
24961;SDS011;12992;50.884;13.668;2023-05-28T07:41:48;8.20;;;2.75;;
24961;SDS011;12992;50.884;13.668;2023-05-28T07:44:19;4.05;;;2.60;;
24961;SDS011;12992;50.884;13.668;2023-05-28T07:46:45;4.82;;;2.50;;
24961;SDS011;12992;50.884;13.668;2023-05-28T07:49:19;3.97;;;2.17;;
24961;SDS011;12992;50.884;13.668;2023-05-28T07:51:47;5.25;;;2.40;;
24961;SDS011;12992;50.884;13.668;2023-05-28T07:56:45;4.07;;;2.50;;
24961;SDS011;12992;50.884;13.668;2023-05-28T07:59:17;5.57;;;2.60;;
24961;SDS011;12992;50.884;13.668;2023-05-28T08:01:43;5.63;;;2.45;;
24961;SDS011;12992;50.884;13.668;2023-05-28T08:04:09;6.45;;;2.35;;
24961;SDS011;12992;50.884;13.668;2023-05-28T08:06:36;6.13;;;2.40;;
24961;SDS011;12992;50.884;13.668;2023-05-28T08:09:04;4.18;;;2.15;;
24961;SDS011;12992;50.884;13.668;2023-05-28T08:11:30;4.60;;;2.33;;
24961;SDS011;12992;50.884;13.668;2023-05-28T08:13:56;4.40;;;2.45;;
24961;SDS011;12992;50.884;13.668;2023-05-28T08:16:22;6.90;;;2.55;;
24961;SDS011;12992;50.884;13.668;2023-05-28T08:19:12;8.55;;;2.38;;
24961;SDS011;12992;50.884;13.668;2023-05-28T08:21:38;4.05;;;2.50;;
24961;SDS011;12992;50.884;13.668;2023-05-28T08:24:03;6.43;;;2.65;;
24961;SDS011;12992;50.884;13.668;2023-05-28T08:26:30;3.53;;;2.03;;
24961;SDS011;12992;50.884;13.668;2023-05-28T08:28:55;6.63;;;3.45;;
24961;SDS011;12992;50.884;13.668;2023-05-28T08:31:21;3.92;;;2.40;;
24961;SDS011;12992;50.884;13.668;2023-05-28T08:34:07;4.35;;;2.38;;
24961;SDS011;12992;50.884;13.668;2023-05-28T08:36:32;4.55;;;2.30;;
24961;SDS011;12992;50.884;13.668;2023-05-28T08:38:59;4.75;;;2.22;;
24961;SDS011;12992;50.884;13.668;2023-05-28T08:41:25;3.90;;;2.08;;
24961;SDS011;12992;50.884;13.668;2023-05-28T08:43:51;3.88;;;2.20;;
24961;SDS011;12992;50.884;13.668;2023-05-28T08:46:17;6.25;;;2.08;;
24961;SDS011;12992;50.884;13.668;2023-05-28T08:49:03;3.95;;;2.22;;
24961;SDS011;12992;50.884;13.668;2023-05-28T08:51:32;4.63;;;2.20;;
24961;SDS011;12992;50.884;13.668;2023-05-28T08:54:02;5.75;;;2.38;;
24961;SDS011;12992;50.884;13.668;2023-05-28T08:56:29;2.55;;;1.88;;
24961;SDS011;12992;50.884;13.668;2023-05-28T08:58:55;3.38;;;2.00;;
24961;SDS011;12992;50.884;13.668;2023-05-28T09:01:21;4.60;;;2.40;;
24961;SDS011;12992;50.884;13.668;2023-05-28T09:03:58;3.58;;;2.17;;
24961;SDS011;12992;50.884;13.668;2023-05-28T09:06:31;2.78;;;1.83;;
24961;SDS011;12992;50.884;13.668;2023-05-28T09:08:57;5.70;;;2.30;;
24961;SDS011;12992;50.884;13.668;2023-05-28T09:12:04;4.32;;;2.17;;
24961;SDS011;12992;50.884;13.668;2023-05-28T09:14:33;3.70;;;2.30;;
24961;SDS011;12992;50.884;13.668;2023-05-28T09:17:02;3.70;;;2.00;;
24961;SDS011;12992;50.884;13.668;2023-05-28T09:19:28;5.07;;;2.63;;
24961;SDS011;12992;50.884;13.668;2023-05-28T09:21:57;4.60;;;2.13;;
24961;SDS011;12992;50.884;13.668;2023-05-28T09:24:32;5.78;;;2.60;;
24961;SDS011;12992;50.884;13.668;2023-05-28T09:27:16;4.07;;;2.38;;
24961;SDS011;12992;50.884;13.668;2023-05-28T09:29:46;3.60;;;2.28;;
24961;SDS011;12992;50.884;13.668;2023-05-28T09:32:12;3.95;;;2.03;;
24961;SDS011;12992;50.884;13.668;2023-05-28T09:34:42;4.13;;;2.30;;
24961;SDS011;12992;50.884;13.668;2023-05-28T09:37:08;4.47;;;2.10;;
24961;SDS011;12992;50.884;13.668;2023-05-28T09:39:33;4.72;;;2.17;;
24961;SDS011;12992;50.884;13.668;2023-05-28T09:41:59;4.55;;;2.00;;
24961;SDS011;12992;50.884;13.668;2023-05-28T09:44:35;4.45;;;2.15;;
24961;SDS011;12992;50.884;13.668;2023-05-28T09:47:01;9.10;;;2.53;;
24961;SDS011;12992;50.884;13.668;2023-05-28T09:49:36;4.43;;;2.47;;
24961;SDS011;12992;50.884;13.668;2023-05-28T09:52:01;4.80;;;2.30;;
24961;SDS011;12992;50.884;13.668;2023-05-28T09:54:29;3.25;;;2.17;;
24961;SDS011;12992;50.884;13.668;2023-05-28T09:57:00;4.00;;;2.03;;
24961;SDS011;12992;50.884;13.668;2023-05-28T09:59:28;4.80;;;2.30;;
24961;SDS011;12992;50.884;13.668;2023-05-28T10:01:57;4.07;;;2.17;;
24961;SDS011;12992;50.884;13.668;2023-05-28T10:04:26;6.65;;;2.22;;
24961;SDS011;12992;50.884;13.668;2023-05-28T10:06:56;3.72;;;2.20;;
24961;SDS011;12992;50.884;13.668;2023-05-28T10:09:22;6.18;;;2.80;;
24961;SDS011;12992;50.884;13.668;2023-05-28T10:11:50;3.92;;;2.15;;
24961;SDS011;12992;50.884;13.668;2023-05-28T10:14:22;6.20;;;2.20;;
24961;SDS011;12992;50.884;13.668;2023-05-28T10:16:48;2.90;;;1.98;;
24961;SDS011;12992;50.884;13.668;2023-05-28T10:19:14;4.40;;;2.35;;
24961;SDS011;12992;50.884;13.668;2023-05-28T10:21:40;5.13;;;2.20;;
24961;SDS011;12992;50.884;13.668;2023-05-28T10:24:06;5.60;;;2.30;;
24961;SDS011;12992;50.884;13.668;2023-05-28T10:26:31;5.32;;;2.28;;
24961;SDS011;12992;50.884;13.668;2023-05-28T10:28:57;4.45;;;2.20;;
24961;SDS011;12992;50.884;13.668;2023-05-28T10:31:23;4.28;;;2.15;;
24961;SDS011;12992;50.884;13.668;2023-05-28T10:33:49;5.70;;;2.45;;
24961;SDS011;12992;50.884;13.668;2023-05-28T10:36:15;4.20;;;2.13;;
24961;SDS011;12992;50.884;13.668;2023-05-28T10:38:45;4.10;;;2.00;;
24961;SDS011;12992;50.884;13.668;2023-05-28T10:41:21;3.28;;;1.90;;
24961;SDS011;12992;50.884;13.668;2023-05-28T10:43:50;6.13;;;2.40;;
24961;SDS011;12992;50.884;13.668;2023-05-28T10:46:25;5.20;;;2.20;;
24961;SDS011;12992;50.884;13.668;2023-05-28T10:49:13;3.15;;;2.03;;
24961;SDS011;12992;50.884;13.668;2023-05-28T10:59:43;4.32;;;2.05;;
24961;SDS011;12992;50.884;13.668;2023-05-28T11:02:12;4.10;;;2.28;;
24961;SDS011;12992;50.884;13.668;2023-05-28T11:04:40;3.35;;;2.00;;
24961;SDS011;12992;50.884;13.668;2023-05-28T11:07:06;4.93;;;2.65;;
24961;SDS011;12992;50.884;13.668;2023-05-28T11:09:32;3.92;;;2.15;;
24961;SDS011;12992;50.884;13.668;2023-05-28T11:12:01;4.07;;;2.15;;
24961;SDS011;12992;50.884;13.668;2023-05-28T11:14:37;3.35;;;2.00;;
24961;SDS011;12992;50.884;13.668;2023-05-28T11:17:10;4.03;;;2.47;;
24961;SDS011;12992;50.884;13.668;2023-05-28T11:19:46;3.08;;;2.17;;
24961;SDS011;12992;50.884;13.668;2023-05-28T11:22:13;5.93;;;2.40;;
24961;SDS011;12992;50.884;13.668;2023-05-28T11:24:49;4.93;;;2.33;;
24961;SDS011;12992;50.884;13.668;2023-05-28T11:27:15;5.10;;;2.30;;
24961;SDS011;12992;50.884;13.668;2023-05-28T11:29:41;2.55;;;1.92;;
24961;SDS011;12992;50.884;13.668;2023-05-28T11:32:06;3.03;;;2.08;;
24961;SDS011;12992;50.884;13.668;2023-05-28T11:34:31;5.35;;;2.33;;
24961;SDS011;12992;50.884;13.668;2023-05-28T11:36:58;5.25;;;2.30;;
24961;SDS011;12992;50.884;13.668;2023-05-28T11:39:24;4.38;;;2.10;;
24961;SDS011;12992;50.884;13.668;2023-05-28T11:41:50;4.47;;;2.45;;
24961;SDS011;12992;50.884;13.668;2023-05-28T11:44:19;4.65;;;2.45;;
24961;SDS011;12992;50.884;13.668;2023-05-28T11:46:45;4.82;;;2.30;;
24961;SDS011;12992;50.884;13.668;2023-05-28T11:49:13;4.82;;;2.13;;
24961;SDS011;12992;50.884;13.668;2023-05-28T11:51:39;4.07;;;1.88;;
24961;SDS011;12992;50.884;13.668;2023-05-28T11:54:05;5.47;;;2.10;;
24961;SDS011;12992;50.884;13.668;2023-05-28T11:56:30;4.60;;;2.57;;
24961;SDS011;12992;50.884;13.668;2023-05-28T11:59:00;4.97;;;1.92;;
24961;SDS011;12992;50.884;13.668;2023-05-28T12:01:26;3.38;;;2.05;;
24961;SDS011;12992;50.884;13.668;2023-05-28T12:04:01;4.18;;;2.13;;
24961;SDS011;12992;50.884;13.668;2023-05-28T12:06:30;4.57;;;2.42;;
24961;SDS011;12992;50.884;13.668;2023-05-28T12:09:01;4.95;;;2.15;;
24961;SDS011;12992;50.884;13.668;2023-05-28T12:11:27;4.05;;;2.17;;
24961;SDS011;12992;50.884;13.668;2023-05-28T12:13:53;5.40;;;2.40;;
24961;SDS011;12992;50.884;13.668;2023-05-28T12:16:18;5.07;;;2.00;;
24961;SDS011;12992;50.884;13.668;2023-05-28T12:18:43;3.43;;;2.10;;
24961;SDS011;12992;50.884;13.668;2023-05-28T12:21:09;4.13;;;2.17;;
24961;SDS011;12992;50.884;13.668;2023-05-28T12:23:36;3.33;;;2.17;;
24961;SDS011;12992;50.884;13.668;2023-05-28T12:26:01;4.13;;;2.15;;
24961;SDS011;12992;50.884;13.668;2023-05-28T12:28:27;4.65;;;2.25;;
24961;SDS011;12992;50.884;13.668;2023-05-28T12:30:53;4.68;;;2.20;;
24961;SDS011;12992;50.884;13.668;2023-05-28T12:33:20;4.60;;;1.70;;
24961;SDS011;12992;50.884;13.668;2023-05-28T12:35:46;4.30;;;2.20;;
24961;SDS011;12992;50.884;13.668;2023-05-28T12:38:12;6.07;;;2.10;;
24961;SDS011;12992;50.884;13.668;2023-05-28T12:40:38;4.95;;;2.45;;
24961;SDS011;12992;50.884;13.668;2023-05-28T12:43:04;4.43;;;2.40;;
24961;SDS011;12992;50.884;13.668;2023-05-28T12:45:29;4.07;;;2.40;;
24961;SDS011;12992;50.884;13.668;2023-05-28T12:47:54;3.88;;;2.40;;
24961;SDS011;12992;50.884;13.668;2023-05-28T12:50:20;2.65;;;1.90;;
24961;SDS011;12992;50.884;13.668;2023-05-28T12:52:48;3.42;;;2.20;;
24961;SDS011;12992;50.884;13.668;2023-05-28T12:55:14;4.13;;;2.03;;
24961;SDS011;12992;50.884;13.668;2023-05-28T12:57:39;4.05;;;2.25;;
24961;SDS011;12992;50.884;13.668;2023-05-28T13:00:05;4.95;;;2.10;;
24961;SDS011;12992;50.884;13.668;2023-05-28T13:02:33;6.00;;;2.35;;
24961;SDS011;12992;50.884;13.668;2023-05-28T13:04:59;3.80;;;2.38;;
24961;SDS011;12992;50.884;13.668;2023-05-28T13:07:25;5.95;;;2.20;;
24961;SDS011;12992;50.884;13.668;2023-05-28T13:09:50;3.45;;;2.00;;
24961;SDS011;12992;50.884;13.668;2023-05-28T13:12:15;9.48;;;2.47;;
24961;SDS011;12992;50.884;13.668;2023-05-28T13:14:41;4.30;;;2.25;;
24961;SDS011;12992;50.884;13.668;2023-05-28T13:17:06;8.30;;;2.83;;
24961;SDS011;12992;50.884;13.668;2023-05-28T13:19:31;3.42;;;2.25;;
24961;SDS011;12992;50.884;13.668;2023-05-28T13:21:57;3.55;;;1.98;;
24961;SDS011;12992;50.884;13.668;2023-05-28T13:24:24;4.25;;;2.20;;
24961;SDS011;12992;50.884;13.668;2023-05-28T13:26:50;4.65;;;2.38;;
24961;SDS011;12992;50.884;13.668;2023-05-28T13:29:15;4.68;;;2.20;;
24961;SDS011;12992;50.884;13.668;2023-05-28T13:31:40;6.78;;;2.42;;
24961;SDS011;12992;50.884;13.668;2023-05-28T13:34:06;5.28;;;2.33;;
24961;SDS011;12992;50.884;13.668;2023-05-28T13:36:31;3.65;;;1.92;;
24961;SDS011;12992;50.884;13.668;2023-05-28T13:38:56;3.28;;;2.45;;
24961;SDS011;12992;50.884;13.668;2023-05-28T13:41:22;5.10;;;2.08;;
24961;SDS011;12992;50.884;13.668;2023-05-28T13:43:51;4.47;;;2.30;;
24961;SDS011;12992;50.884;13.668;2023-05-28T13:46:23;3.78;;;2.42;;
24961;SDS011;12992;50.884;13.668;2023-05-28T13:48:52;4.68;;;2.65;;
24961;SDS011;12992;50.884;13.668;2023-05-28T13:51:18;7.28;;;2.50;;
24961;SDS011;12992;50.884;13.668;2023-05-28T13:53:44;3.55;;;2.00;;
24961;SDS011;12992;50.884;13.668;2023-05-28T13:56:11;4.18;;;2.35;;
24961;SDS011;12992;50.884;13.668;2023-05-28T13:58:37;4.93;;;2.25;;
24961;SDS011;12992;50.884;13.668;2023-05-28T14:01:02;5.93;;;2.15;;
24961;SDS011;12992;50.884;13.668;2023-05-28T14:03:27;3.05;;;2.30;;
24961;SDS011;12992;50.884;13.668;2023-05-28T14:05:53;3.80;;;2.30;;
24961;SDS011;12992;50.884;13.668;2023-05-28T14:08:18;2.92;;;1.80;;
24961;SDS011;12992;50.884;13.668;2023-05-28T14:10:43;3.08;;;2.10;;
24961;SDS011;12992;50.884;13.668;2023-05-28T14:13:10;4.93;;;2.30;;
24961;SDS011;12992;50.884;13.668;2023-05-28T14:15:35;6.68;;;2.20;;
24961;SDS011;12992;50.884;13.668;2023-05-28T14:18:00;7.05;;;2.15;;
24961;SDS011;12992;50.884;13.668;2023-05-28T14:20:26;3.78;;;2.05;;
24961;SDS011;12992;50.884;13.668;2023-05-28T14:22:51;5.65;;;2.45;;
24961;SDS011;12992;50.884;13.668;2023-05-28T14:25:17;4.32;;;2.10;;
24961;SDS011;12992;50.884;13.668;2023-05-28T14:27:42;3.90;;;2.40;;
24961;SDS011;12992;50.884;13.668;2023-05-28T14:30:07;2.70;;;1.80;;
24961;SDS011;12992;50.884;13.668;2023-05-28T14:32:33;4.97;;;2.22;;
24961;SDS011;12992;50.884;13.668;2023-05-28T14:34:59;3.75;;;1.90;;
24961;SDS011;12992;50.884;13.668;2023-05-28T14:37:25;4.00;;;2.35;;
24961;SDS011;12992;50.884;13.668;2023-05-28T14:39:51;3.53;;;2.20;;
24961;SDS011;12992;50.884;13.668;2023-05-28T14:42:16;8.07;;;2.33;;
24961;SDS011;12992;50.884;13.668;2023-05-28T14:44:41;3.30;;;2.00;;